Latest Weather Observations for Eucla

IDW60801

Issued at 6:53 am WST Wednesday 18 September 2019 (issued every 10 minutes, with the page automatically refreshed every 10 minutes)

About weather observations | Map of weather stations | Latest weather observations for WA | Other Formats
Station Details ID: 011003 Name: EUCLA Lat: -31.68 Lon: 128.90 Height: 93.1 m
Data from the previous 72 hours. | See also: Recent months at Eucla
Date/Time
WST
Temp
°C
App
Temp
°C
Dew
Point
°C
Rel
Hum
%
Delta-T
°C
Wind Press
QNH
hPa
Press
MSL
hPa
Rain since
9am
mm
Dir  Spd
km/h
Gust
km/h
Spd
kts
Gust
kts
18/06:30am 15.7 10.7 -0.9 32 7.0 NNE 15 22 8 12 1014.1 1014.0 0.0
18/06:00am 13.3 7.5 -1.4 36 5.9 NNE 19 24 10 13 1014.1 1014.0 0.0
18/05:30am 13.4 8.4 -1.3 36 6.0 NNE 15 22 8 12 1014.3 1014.2 0.0
18/05:00am 13.6 8.7 -0.8 37 5.9 NNE 15 22 8 12 1014.3 1014.2 0.0
18/04:30am 13.9 8.2 -0.5 37 6.0 NNE 19 26 10 14 1014.4 1014.3 0.0
18/04:00am 14.2 8.3 -0.6 36 6.1 NNE 20 26 11 14 1014.2 1014.1 0.0
18/03:30am 14.1 8.9 0.4 39 5.8 NNE 17 24 9 13 1014.4 1014.3 0.0
18/03:00am 13.7 9.0 1.0 42 5.4 NNE 15 19 8 10 1014.7 1014.6 0.0
18/02:30am 14.0 9.9 2.0 44 5.3 NE 13 17 7 9 1014.8 1014.7 0.0
18/02:00am 14.3 10.2 2.5 45 5.2 NE 13 20 7 11 1015.1 1015.0 0.0
18/01:30am 14.9 10.5 2.8 44 5.4 NE 15 26 8 14 1015.6 1015.5 0.0
18/01:00am 14.0 8.9 4.3 52 4.5 NE 20 32 11 17 1015.5 1015.4 0.0
18/12:30am 13.4 9.0 4.8 56 4.0 NE 17 24 9 13 1016.4 1016.3 0.0
18/12:00am 13.0 9.4 5.2 59 3.6 ENE 13 20 7 11 1017.0 1017.0 0.0
 
Date/Time
WST
Temp
°C
App
Temp
°C
Dew
Point
°C
Rel
Hum
%
Delta-T
°C
Wind Press
QNH
hPa
Press
MSL
hPa
Rain since
9am
mm
Dir  Spd
km/h
Gust
km/h
Spd
kts
Gust
kts
17/11:30pm 12.6 8.6 5.1 60 3.5 ENE 15 24 8 13 1017.2 1017.2 0.0
17/11:00pm 12.3 8.7 5.0 61 3.4 ENE 13 19 7 10 1017.6 1017.6 0.0
17/10:30pm 12.0 8.4 5.0 62 3.2 E 13 17 7 9 1018.3 1018.3 0.0
17/10:00pm 12.2 9.1 5.6 64 3.1 ESE 11 15 6 8 1018.4 1018.4 0.0
17/09:30pm 12.8 9.5 6.4 65 3.1 E 13 20 7 11 1018.3 1018.3 0.0
17/09:00pm 13.2 10.1 7.2 67 2.9 ENE 13 19 7 10 1018.9 1018.9 0.0
17/08:30pm 13.5 10.2 8.1 70 2.7 ENE 15 22 8 12 1018.8 1018.8 0.0
17/08:00pm 13.6 10.6 9.1 74 2.3 ENE 15 22 8 12 1018.9 1018.9 0.0
17/07:30pm 13.8 10.9 9.5 75 2.2 E 15 19 8 10 1019.4 1019.3 0.0
17/07:00pm 14.4 10.7 9.6 73 2.5 E 19 28 10 15 1019.3 1019.2 0.0
17/06:30pm 14.8 11.0 9.8 72 2.6 E 20 33 11 18 1019.1 1019.0 0.0
17/06:00pm 15.0 11.1 9.6 70 2.8 E 20 30 11 16 1018.9 1018.9 0.0
17/05:30pm 15.0 11.1 9.4 69 2.9 E 20 33 11 18 1018.8 1018.8 0.0
17/05:00pm 15.1 10.8 9.5 69 2.9 E 22 33 12 18 1018.9 1018.9 0.0
17/04:30pm 15.6 11.3 9.5 67 3.2 E 22 37 12 20 1018.8 1018.8 0.0
17/04:00pm 15.7 12.0 9.4 66 3.3 E 19 28 10 15 1018.9 1018.9 0.0
17/03:30pm 16.4 12.5 9.6 64 3.6 ESE 20 30 11 16 1018.9 1018.9 0.0
17/03:00pm 16.7 12.1 9.6 63 3.7 E 24 33 13 18 1019.1 1019.0 0.0
17/02:30pm 16.7 11.9 8.9 60 4.0 E 24 33 13 18 1019.3 1019.2 0.0
17/02:00pm 18.0 13.7 9.4 57 4.5 ESE 22 32 12 17 1019.5 1019.4 0.0
17/01:30pm 18.8 14.5 9.3 54 5.0 ESE 22 32 12 17 1020.0 1019.9 0.0
17/01:00pm 18.3 14.3 9.1 55 4.8 ESE 20 30 11 16 1020.4 1020.3 0.0
17/12:30pm 18.9 14.5 8.8 52 5.3 SE 22 30 12 16 1020.9 1020.8 0.0
17/12:00pm 20.0 17.2 8.4 47 6.0 ENE 13 26 7 14 1021.3 1021.2 0.0
17/11:30am 22.7 17.9 2.8 27 9.5 NE 17 26 9 14 1021.8 1021.7 0.0
17/11:00am 21.5 16.9 3.7 31 8.6 NNE 17 26 9 14 1022.3 1022.2 0.0
17/10:30am 20.4 15.3 4.0 34 7.9 NNE 20 32 11 17 1022.8 1022.7 0.0
17/10:00am 20.0 14.9 4.1 35 7.6 N 20 32 11 17 1023.3 1023.2 0.0
17/09:30am 18.6 13.6 4.4 39 6.8 NNE 20 32 11 17 1023.3 1023.2 0.0
17/09:00am 17.3 11.5 4.3 42 6.1 NNE 24 35 13 19 1023.6 1023.5 0.0
17/08:30am 16.8 11.0 4.5 44 5.8 NE 24 33 13 18 1023.7 1023.6 0.0
17/08:00am 15.1 9.7 4.5 49 4.9 NE 22 32 12 17 1024.1 1024.0 0.0
17/07:30am 14.3 8.9 4.6 52 4.5 NE 22 32 12 17 1024.3 1024.2 0.0
17/07:00am 12.6 7.9 5.3 61 3.4 ENE 19 28 10 15 1024.4 1024.3 0.0
17/06:30am 11.5 7.4 6.4 71 2.4 ENE 17 26 9 14 1024.2 1024.1 0.0
17/06:00am 9.3 5.4 5.5 77 1.7 ENE 15 20 8 11 1024.0 1023.9 0.0
17/05:30am 8.5 4.9 4.9 78 1.6 NE 13 22 7 12 1023.9 1023.8 0.0
17/05:00am 8.4 4.8 5.0 79 1.5 ENE 13 19 7 10 1023.8 1023.7 0.0
17/04:30am 8.7 5.1 5.1 78 1.6 NE 13 19 7 10 1023.7 1023.6 0.0
17/04:00am 9.0 5.4 5.2 77 1.7 ENE 13 19 7 10 1023.6 1023.5 0.0
17/03:30am 9.7 6.2 5.3 74 2.0 ENE 13 19 7 10 1023.6 1023.5 0.0
17/03:00am 10.2 6.7 5.6 73 2.1 ENE 13 20 7 11 1023.5 1023.4 0.0
17/02:30am 10.6 7.2 5.8 72 2.2 ENE 13 19 7 10 1023.7 1023.6 0.0
17/02:00am 10.7 7.3 5.9 72 2.2 ENE 13 19 7 10 1023.9 1023.8 0.0
17/01:30am 10.6 8.0 6.0 73 2.1 ENE 9 15 5 8 1024.2 1024.1 0.0
17/01:00am 10.9 8.3 6.1 72 2.2 ENE 9 15 5 8 1024.7 1024.6 0.0
17/12:30am 11.4 8.0 6.1 70 2.5 ENE 13 19 7 10 1025.0 1024.9 0.0
17/12:00am 12.0 8.3 6.3 68 2.7 E 15 22 8 12 1025.2 1025.1 0.0
 
Date/Time
WST
Temp
°C
App
Temp
°C
Dew
Point
°C
Rel
Hum
%
Delta-T
°C
Wind Press
QNH
hPa
Press
MSL
hPa
Rain since
9am
mm
Dir  Spd
km/h
Gust
km/h
Spd
kts
Gust
kts
16/11:30pm 12.6 8.6 6.6 67 2.9 E 17 30 9 16 1025.5 1025.4 0.0
16/11:00pm 13.1 8.6 6.9 66 3.0 E 20 32 11 17 1025.7 1025.6 0.0
16/10:30pm 13.1 8.6 7.1 67 2.9 E 20 35 11 19 1025.8 1025.7 0.0
16/10:00pm 13.0 9.1 7.2 68 2.8 E 17 28 9 15 1026.0 1025.9 0.0
16/09:30pm 12.9 9.1 7.4 69 2.7 E 17 30 9 16 1026.2 1026.2 0.0
16/09:00pm 13.1 9.2 7.1 67 2.9 E 17 28 9 15 1026.4 1026.4 0.0
16/08:30pm 13.5 9.5 8.4 71 2.6 E 19 32 10 17 1026.4 1026.4 0.0
16/08:00pm 13.2 9.7 7.4 68 2.8 E 15 20 8 11 1026.4 1026.4 0.0
16/07:30pm 13.2 9.4 7.4 68 2.8 E 17 28 9 15 1026.3 1026.3 0.0
16/07:00pm 13.6 9.6 8.2 70 2.7 ESE 19 28 10 15 1026.1 1026.1 0.0
16/06:30pm 13.4 9.2 7.6 68 2.9 ESE 19 26 10 14 1026.0 1025.9 0.0
16/06:00pm 13.5 9.3 7.5 67 2.9 ESE 19 30 10 16 1025.9 1025.8 0.0
16/05:30pm 13.6 9.4 7.6 67 3.0 ESE 19 28 10 15 1025.9 1025.8 0.0
16/05:00pm 13.9 10.1 7.7 66 3.1 ESE 17 26 9 14 1025.9 1025.8 0.0
16/04:30pm 14.4 10.1 7.9 65 3.2 ESE 20 33 11 18 1025.9 1025.8 0.0
16/04:00pm 14.7 10.0 7.7 63 3.5 ESE 22 33 12 18 1025.7 1025.6 0.0
16/03:30pm 14.6 9.9 7.9 64 3.4 ESE 22 37 12 20 1025.6 1025.5 0.0
16/03:00pm 15.9 10.8 7.7 58 4.1 ESE 24 33 13 18 1025.5 1025.4 0.0
16/02:30pm 15.6 10.4 7.1 57 4.2 ESE 24 35 13 19 1025.5 1025.4 0.0
16/02:00pm 16.1 11.3 7.3 56 4.4 ESE 22 33 12 18 1025.6 1025.5 0.0
16/01:30pm 16.8 11.1 6.6 51 5.0 ESE 26 33 14 18 1025.9 1025.8 0.0
16/01:00pm 17.1 12.0 7.7 54 4.7 ESE 24 35 13 19 1025.9 1025.8 0.0
16/12:30pm 16.3 11.0 8.3 59 4.1 ESE 26 37 14 20 1026.1 1026.1 0.0
16/12:00pm 15.8 11.7 8.5 62 3.7 SE 20 32 11 17 1026.5 1026.5 0.0
16/11:30am 16.9 13.0 9.3 61 4.0 SE 20 33 11 18 1026.9 1026.9 0.0
16/11:00am 16.4 12.0 8.9 61 3.8 SE 22 33 12 18 1027.1 1027.1 0.0
16/10:30am 15.1 10.2 8.3 64 3.4 SE 24 33 13 18 1027.2 1027.2 0.0
16/10:00am 16.0 11.4 8.2 60 3.9 SE 22 30 12 16 1027.6 1027.6 0.0
16/09:30am 16.5 13.1 9.0 61 3.9 SE 17 26 9 14 1027.4 1027.4 0.0
16/09:00am 17.0 12.5 8.7 58 4.3 SE 22 32 12 17 1027.3 1027.3 0.0
16/08:30am 16.1 11.9 8.1 59 4.1 SE 20 30 11 16 1027.3 1027.3 0.0
16/08:00am 15.8 11.4 8.8 63 3.6 SE 22 33 12 18 1027.1 1027.1 0.0
16/07:30am 15.3 11.1 8.1 62 3.6 SE 20 30 11 16 1027.1 1027.1 0.0
16/07:00am 14.9 10.1 7.2 60 3.8 SE 22 33 12 18 1026.6 1026.6 0.0
16/06:30am 13.8 10.1 7.8 67 3.0 SE 17 26 9 14 1026.3 1026.3 0.0
16/06:00am 13.4 9.6 7.4 67 2.9 SE 17 26 9 14 1025.9 1025.8 0.0
16/05:30am 13.2 9.4 7.4 68 2.8 SE 17 30 9 16 1025.5 1025.4 0.0
16/05:00am 13.2 9.5 7.9 70 2.6 SE 17 28 9 15 1025.4 1025.3 0.0
16/04:30am 13.2 9.0 7.6 69 2.8 SE 19 30 10 16 1025.3 1025.2 0.0
16/04:00am 13.3 9.2 7.7 69 2.7 SE 19 32 10 17 1025.2 1025.1 0.0
16/03:30am 13.6 9.0 8.2 70 2.7 SSE 22 32 12 17 1024.9 1024.8 0.0
16/03:00am 13.4 8.8 8.3 71 2.5 SSE 22 35 12 19 1024.5 1024.4 0.0
16/02:30am 13.3 8.6 7.7 69 2.8 SSE 22 33 12 18 1024.4 1024.3 0.0
16/02:00am 13.2 8.9 7.9 70 2.6 SSE 20 35 11 19 1024.0 1023.9 0.0
16/01:30am 13.6 9.4 8.4 71 2.6 SSE 20 35 11 19 1024.1 1024.0 0.0
16/01:00am 13.6 9.1 8.7 72 2.5 SSE 22 33 12 18 1023.8 1023.7 0.0
16/12:30am 13.4 9.4 8.9 74 2.3 SSE 20 33 11 18 1023.8 1023.7 0.0
16/12:00am 13.6 9.7 9.6 77 2.0 SSE 20 33 11 18 1023.5 1023.4 0.0
 
Date/Time
WST
Temp
°C
App
Temp
°C
Dew
Point
°C
Rel
Hum
%
Delta-T
°C
Wind Press
QNH
hPa
Press
MSL
hPa
Rain since
9am
mm
Dir  Spd
km/h
Gust
km/h
Spd
kts
Gust
kts
15/11:30pm 13.8 10.2 9.8 77 2.1 SSE 19 32 10 17 1023.6 1023.5 0.0
15/11:00pm 14.0 10.1 9.6 75 2.3 SSE 20 33 11 18 1024.1 1024.0 0.0
15/10:30pm 14.1 10.1 10.3 78 2.0 SSE 22 33 12 18 1024.1 1024.0 0.0
15/10:00pm 14.1 10.7 10.5 79 1.9 SSE 19 32 10 17 1024.0 1023.9 0.0
15/09:30pm 13.8 10.4 10.4 80 1.8 SSE 19 32 10 17 1023.7 1023.6 0.0
15/09:00pm 14.1 10.5 10.7 80 1.8 SSE 20 30 11 16 1023.8 1023.7 0.0
15/08:30pm 14.3 11.2 11.5 83 1.5 SSE 19 30 10 16 1023.9 1023.8 0.0
15/08:00pm 14.5 11.4 11.7 83 1.5 S 19 32 10 17 1023.8 1023.7 0.0
15/07:30pm 14.6 11.8 11.4 81 1.7 SSE 17 30 9 16 1023.5 1023.4 0.0
15/07:00pm 14.9 11.7 11.3 79 1.9 SSE 19 32 10 17 1023.4 1023.3 0.0
15/06:30pm 14.8 11.5 11.6 81 1.7 SSE 20 30 11 16 1022.9 1022.8 0.0
15/06:00pm 15.0 11.9 12.3 84 1.5 SSE 20 33 11 18 1022.5 1022.4 0.0
15/05:30pm 15.1 12.1 12.6 85 1.4 SSE 20 30 11 16 1022.3 1022.2 0.0
15/05:00pm 15.3 12.3 12.4 83 1.6 SSE 20 32 11 17 1022.0 1021.9 0.0
15/04:30pm 15.6 11.8 12.5 82 1.7 SSE 24 39 13 21 1021.6 1021.5 0.0
15/04:00pm 15.8 12.5 12.9 83 1.6 SSE 22 41 12 22 1020.9 1020.8 0.0
15/03:30pm 16.0 12.0 13.1 83 1.6 SSE 26 37 14 20 1020.8 1020.7 0.0
15/03:00pm 16.7 13.3 13.8 83 1.6 S 24 37 13 20 1020.3 1020.2 0.0
15/02:30pm 17.8 14.1 13.9 78 2.2 SSE 26 37 14 20 1020.2 1020.1 0.0
15/02:00pm 17.7 14.0 13.8 78 2.2 S 26 37 14 20 1020.0 1019.9 0.0
15/01:30pm 18.7 15.3 13.6 72 2.9 SSE 24 35 13 19 1019.8 1019.7 0.0
15/01:00pm 19.5 16.6 14.1 71 3.1 S 22 35 12 19 1019.7 1019.6 0.0
15/12:30pm 19.6 15.8 13.5 68 3.5 S 26 37 14 20 1019.8 1019.7 0.0
15/12:00pm 19.9 17.0 12.9 64 4.0 S 20 32 11 17 1019.8 1019.7 0.0
15/11:30am 19.9 16.5 13.8 68 3.5 S 24 37 13 20 1019.8 1019.7 0.0
15/11:00am 19.5 16.2 14.1 71 3.1 S 24 37 13 20 1019.9 1019.8 0.0
15/10:30am 19.7 16.3 13.6 68 3.5 SSW 24 35 13 19 1020.0 1019.9 0.0
15/10:00am 19.5 16.5 13.7 69 3.3 SSW 22 32 12 17 1020.0 1019.9 0.0
15/09:30am 21.5 19.3 13.2 59 4.8 S 17 30 9 16 1020.1 1020.0 0.0
15/09:00am 20.7 19.5 14.1 66 3.8 S 13 26 7 14 1020.2 1020.1 0.0
15/08:30am 19.0 17.2 13.4 70 3.2 S 15 24 8 13 1020.0 1019.9 0.0
15/08:00am 19.3 17.2 13.7 70 3.2 S 17 28 9 15 1020.2 1020.1 0.0
15/07:30am 18.1 17.3 14.0 77 2.4 S 11 17 6 9 1019.2 1019.1 0.0
15/07:00am 16.8 14.9 14.1 84 1.5 SSW 17 28 9 15 1019.1 1019.0 0.0

Other formats

Comma delimited format used in spreadsheet applications
http://www.bom.gov.au/fwo/IDW60801/IDW60801.94647.axf

JavaScript Object Notation format (JSON) in row-major order
http://www.bom.gov.au/fwo/IDW60801/IDW60801.94647.json

Data quality

Most of these data are generated automatically and are frequently updated. Quality checks on data are not normally performed. It is possible for incorrect values to appear. Refer to information at About Latest Weather Observations and please check the disclaimer before using these data.